createdAt,value
2023-01-08T00:01:09.528Z,48.70
2023-01-08T00:03:37.779Z,46.60
2023-01-08T00:06:07.518Z,46.97
2023-01-08T00:08:35.211Z,48.15
2023-01-08T00:11:02.446Z,50.25
2023-01-08T00:13:29.855Z,47.08
2023-01-08T00:15:57.061Z,45.42
2023-01-08T00:18:27.169Z,49.65
2023-01-08T00:20:54.324Z,52.80
2023-01-08T00:23:21.774Z,43.00
2023-01-08T00:25:49.025Z,48.05
2023-01-08T00:28:17.120Z,43.63
2023-01-08T00:30:44.541Z,43.60
2023-01-08T00:33:12.004Z,45.38
2023-01-08T00:35:39.746Z,46.97
2023-01-08T00:38:07.787Z,45.10
2023-01-08T00:40:36.524Z,45.90
2023-01-08T00:43:03.964Z,43.45
2023-01-08T00:45:31.595Z,44.95
2023-01-08T00:47:59.473Z,48.85
2023-01-08T00:50:27.153Z,44.70
2023-01-08T00:52:54.302Z,41.90
2023-01-08T00:55:21.638Z,46.33
2023-01-08T00:57:48.741Z,47.55
2023-01-08T01:00:16.940Z,44.83
2023-01-08T01:02:44.529Z,41.80
2023-01-08T01:05:15.615Z,46.55
2023-01-08T01:07:44.463Z,48.35
2023-01-08T01:10:15.009Z,42.55
2023-01-08T01:12:42.849Z,45.05
2023-01-08T01:15:16.130Z,48.25
2023-01-08T01:20:15.902Z,44.65
2023-01-08T01:22:43.732Z,50.90
2023-01-08T01:25:11.254Z,46.00
2023-01-08T01:27:38.560Z,43.42
2023-01-08T01:30:06.557Z,50.70
2023-01-08T01:32:34.197Z,49.08
2023-01-08T01:35:01.634Z,48.78
2023-01-08T01:37:29.268Z,43.50
2023-01-08T01:39:56.809Z,40.70
2023-01-08T01:48:15.991Z,50.38
2023-01-08T01:50:51.917Z,53.38
2023-01-08T01:53:34.157Z,52.47
2023-01-08T01:56:03.352Z,41.58
2023-01-08T01:58:32.420Z,44.63
2023-01-08T02:01:04.400Z,45.20
2023-01-08T02:03:35.775Z,41.67
2023-01-08T02:06:09.012Z,46.60
2023-01-08T02:12:18.697Z,50.75
2023-01-08T02:15:14.311Z,47.72
2023-01-08T02:17:49.164Z,51.60
2023-01-08T02:20:22.833Z,47.78
2023-01-08T02:26:38.061Z,51.92
2023-01-08T02:29:11.186Z,49.20
2023-01-08T02:31:41.480Z,48.38
2023-01-08T02:34:10.419Z,53.22
2023-01-08T02:36:57.098Z,55.28
2023-01-08T02:39:47.182Z,44.97
2023-01-08T02:43:00.080Z,56.53
2023-01-08T02:45:37.443Z,49.90
2023-01-08T02:48:26.749Z,48.78
2023-01-08T02:51:05.736Z,54.47
2023-01-08T02:53:37.430Z,53.13
2023-01-08T02:56:09.886Z,52.72
2023-01-08T03:01:45.869Z,44.65
2023-01-08T03:04:24.202Z,46.05
2023-01-08T03:06:52.325Z,43.17
2023-01-08T03:09:31.284Z,52.78
2023-01-08T03:12:15.713Z,46.88
2023-01-08T03:15:07.580Z,46.00
2023-01-08T03:17:57.750Z,42.90
2023-01-08T03:20:25.409Z,39.53
2023-01-08T03:22:56.540Z,42.47
2023-01-08T03:25:26.816Z,40.92
2023-01-08T03:28:04.355Z,36.08
2023-01-08T03:30:32.230Z,40.38
2023-01-08T03:33:01.549Z,47.38
2023-01-08T03:35:30.999Z,37.95
2023-01-08T03:38:06.993Z,43.10
2023-01-08T03:40:44.209Z,41.78
2023-01-08T03:43:40.236Z,47.50
2023-01-08T03:46:22.016Z,38.63
2023-01-08T03:49:10.994Z,44.85
2023-01-08T03:51:46.972Z,42.65
2023-01-08T03:54:20.603Z,42.33
2023-01-08T03:56:47.810Z,42.53
2023-01-08T03:59:16.043Z,44.95
2023-01-08T04:01:43.451Z,51.47
2023-01-08T04:04:11.652Z,62.10
2023-01-08T04:06:39.002Z,63.20
2023-01-08T04:09:06.123Z,54.75
2023-01-08T04:11:33.314Z,49.88
2023-01-08T04:14:00.565Z,45.33
2023-01-08T04:16:27.967Z,44.97
2023-01-08T04:21:33.777Z,47.22
2023-01-08T04:24:01.092Z,42.70
2023-01-08T04:32:36.727Z,50.10
2023-01-08T04:35:04.388Z,48.75
2023-01-08T04:37:49.747Z,42.08
2023-01-08T04:40:17.059Z,47.83
2023-01-08T04:42:44.441Z,47.95
2023-01-08T04:45:11.653Z,52.42
2023-01-08T04:47:38.927Z,55.17
2023-01-08T04:50:06.637Z,51.83
2023-01-08T04:52:34.228Z,50.63
2023-01-08T04:55:05.092Z,53.08
2023-01-08T04:57:35.593Z,45.90
2023-01-08T05:00:03.139Z,45.13
2023-01-08T05:02:36.970Z,47.75
2023-01-08T05:05:32.297Z,50.78
2023-01-08T05:07:59.538Z,48.83
2023-01-08T05:10:49.389Z,46.67
2023-01-08T05:13:16.537Z,49.78
2023-01-08T05:15:47.097Z,47.40
2023-01-08T05:18:14.340Z,48.80
2023-01-08T05:20:41.621Z,47.80
2023-01-08T05:23:08.951Z,49.08
2023-01-08T05:25:36.234Z,54.33
2023-01-08T05:28:04.842Z,62.15
2023-01-08T05:30:32.033Z,56.85
2023-01-08T05:32:59.494Z,50.03
2023-01-08T05:35:39.777Z,49.75
2023-01-08T05:41:23.735Z,48.28
2023-01-08T05:43:50.988Z,49.97
2023-01-08T05:46:21.664Z,46.88
2023-01-08T05:48:50.836Z,48.17
2023-01-08T05:51:18.101Z,51.20
2023-01-08T05:53:45.364Z,44.75
2023-01-08T05:56:15.705Z,47.22
2023-01-08T05:58:42.874Z,44.63
2023-01-08T06:01:12.543Z,42.15
2023-01-08T06:03:43.844Z,54.10
2023-01-08T06:06:12.132Z,52.78
2023-01-08T06:09:08.293Z,55.75
2023-01-08T06:11:35.515Z,52.97
2023-01-08T06:14:02.720Z,48.42
2023-01-08T06:16:29.924Z,53.20
2023-01-08T06:19:06.000Z,48.63
2023-01-08T06:21:33.333Z,57.83
2023-01-08T06:24:00.733Z,53.25
2023-01-08T06:26:27.978Z,57.60
2023-01-08T06:28:55.284Z,56.10
2023-01-08T06:31:22.437Z,63.13
2023-01-08T06:33:49.606Z,67.65
2023-01-08T06:36:16.798Z,65.70
2023-01-08T06:38:43.986Z,66.93
2023-01-08T06:41:12.870Z,70.32
2023-01-08T06:43:43.616Z,62.38
2023-01-08T06:46:11.896Z,68.30
2023-01-08T06:48:39.234Z,67.88
2023-01-08T06:51:38.468Z,60.63
2023-01-08T06:54:13.650Z,66.35
2023-01-08T06:56:53.050Z,63.22
2023-01-08T06:59:20.732Z,78.53
2023-01-08T07:01:48.218Z,80.72
2023-01-08T07:04:15.448Z,86.00
2023-01-08T07:06:42.853Z,78.80
2023-01-08T07:09:13.414Z,78.78
2023-01-08T07:11:44.262Z,85.85
2023-01-08T07:14:11.716Z,95.13
2023-01-08T07:16:39.015Z,110.28
2023-01-08T07:19:10.421Z,95.00
2023-01-08T07:21:43.582Z,516.22
2023-01-08T07:24:11.137Z,256.90
2023-01-08T07:26:39.813Z,268.17
2023-01-08T07:29:08.910Z,200.05
2023-01-08T07:31:36.450Z,170.57
2023-01-08T07:34:03.652Z,210.85
2023-01-08T07:36:30.917Z,192.13
2023-01-08T07:38:58.171Z,245.70
2023-01-08T07:41:31.657Z,485.00
2023-01-08T07:43:58.789Z,314.52
2023-01-08T07:46:32.789Z,147.35
2023-01-08T07:49:00.090Z,125.70
2023-01-08T07:51:27.564Z,128.75
2023-01-08T07:53:56.610Z,123.93
2023-01-08T07:56:25.310Z,121.03
2023-01-08T07:58:52.934Z,149.25
2023-01-08T08:01:20.441Z,307.33
2023-01-08T08:03:47.798Z,134.80
2023-01-08T08:06:15.026Z,135.30
2023-01-08T08:08:42.532Z,181.85
2023-01-08T08:11:10.090Z,159.38
2023-01-08T08:13:42.706Z,161.82
2023-01-08T08:16:10.145Z,121.57
2023-01-08T08:18:37.560Z,91.18
2023-01-08T08:21:04.856Z,95.40
2023-01-08T08:23:33.160Z,91.28
2023-01-08T08:26:04.475Z,105.78
2023-01-08T08:28:31.660Z,106.72
2023-01-08T08:30:59.298Z,116.40
2023-01-08T08:33:26.539Z,128.85
2023-01-08T08:35:53.716Z,121.68
2023-01-08T08:38:23.831Z,131.68
2023-01-08T08:40:51.319Z,130.05
2023-01-08T08:43:18.475Z,144.50
2023-01-08T08:45:45.757Z,184.10
2023-01-08T08:48:12.910Z,116.07
2023-01-08T08:50:40.145Z,125.93
2023-01-08T08:53:07.507Z,121.03
2023-01-08T08:55:34.865Z,144.02
2023-01-08T08:58:08.089Z,124.30
2023-01-08T09:00:35.363Z,104.97
2023-01-08T09:03:03.177Z,110.82
2023-01-08T09:05:30.597Z,171.57
2023-01-08T09:07:57.779Z,267.73
2023-01-08T09:10:25.071Z,198.27
2023-01-08T09:12:54.039Z,124.63
2023-01-08T09:15:22.260Z,105.03
2023-01-08T09:17:54.327Z,142.50
2023-01-08T09:20:21.811Z,115.15
2023-01-08T09:22:49.719Z,110.05
2023-01-08T09:25:17.328Z,96.93
2023-01-08T09:27:45.123Z,102.80
2023-01-08T09:30:12.979Z,100.88
2023-01-08T09:32:40.162Z,90.53
2023-01-08T09:35:07.577Z,103.93
2023-01-08T09:37:34.712Z,108.40
2023-01-08T09:40:02.956Z,113.18
2023-01-08T09:42:31.926Z,132.27
2023-01-08T09:45:02.013Z,107.95
2023-01-08T09:47:38.725Z,109.57
2023-01-08T09:50:12.227Z,126.97
2023-01-08T09:52:42.104Z,112.90
2023-01-08T09:55:14.804Z,114.82
2023-01-08T09:57:43.737Z,125.47
2023-01-08T10:00:15.983Z,129.23
2023-01-08T10:02:44.076Z,127.00
2023-01-08T10:05:14.890Z,117.95
2023-01-08T10:07:42.397Z,102.60
2023-01-08T10:10:31.218Z,107.78
2023-01-08T10:12:59.559Z,78.63
2023-01-08T10:15:27.075Z,72.30
2023-01-08T10:18:06.812Z,78.80
2023-01-08T10:20:34.510Z,71.10
2023-01-08T10:23:20.019Z,76.28
2023-01-08T10:26:01.539Z,95.18
2023-01-08T10:28:36.635Z,66.93
2023-01-08T10:31:17.073Z,77.07
2023-01-08T10:33:50.058Z,98.82
2023-01-08T10:36:23.461Z,100.00
2023-01-08T10:38:56.425Z,64.22
2023-01-08T10:41:24.200Z,59.92
2023-01-08T10:44:04.729Z,62.88
2023-01-08T10:46:45.030Z,121.93
2023-01-08T10:49:32.276Z,84.30
2023-01-08T10:52:01.104Z,165.23
2023-01-08T10:54:41.708Z,96.45
2023-01-08T10:57:28.623Z,78.90
2023-01-08T10:59:56.799Z,72.47
2023-01-08T11:02:33.214Z,69.75
2023-01-08T11:05:01.930Z,69.78
2023-01-08T11:07:30.185Z,69.35
2023-01-08T11:09:57.455Z,69.95
2023-01-08T11:12:34.467Z,70.88
2023-01-08T11:15:03.054Z,65.75
2023-01-08T11:17:30.608Z,72.03
2023-01-08T11:20:08.199Z,65.05
2023-01-08T11:22:35.337Z,63.45
2023-01-08T11:25:02.813Z,67.13
2023-01-08T11:27:39.602Z,65.15
2023-01-08T11:30:20.021Z,60.90
2023-01-08T11:33:10.230Z,63.08
2023-01-08T11:35:50.000Z,64.60
2023-01-08T11:38:17.512Z,69.25
2023-01-08T11:40:52.110Z,61.85
2023-01-08T11:43:47.553Z,65.57
2023-01-08T11:46:45.365Z,66.25
2023-01-08T11:49:12.446Z,63.40
2023-01-08T11:52:16.636Z,74.88
2023-01-08T11:55:02.063Z,63.53
2023-01-08T11:57:32.378Z,66.75
2023-01-08T12:00:17.768Z,62.25
2023-01-08T12:02:53.384Z,65.30
2023-01-08T12:05:32.751Z,66.85
2023-01-08T12:08:06.927Z,72.15
2023-01-08T12:10:58.797Z,31.05
2023-01-08T12:14:03.319Z,498.13
2023-01-08T12:19:03.954Z,75.38
2023-01-08T12:21:34.046Z,67.63
2023-01-08T12:24:29.134Z,65.82
2023-01-08T12:27:48.392Z,65.88
2023-01-08T12:30:32.647Z,64.78
2023-01-08T12:33:16.053Z,71.85
2023-01-08T12:35:51.216Z,69.10
2023-01-08T12:38:21.302Z,69.60
2023-01-08T12:40:58.064Z,61.78
2023-01-08T12:43:51.640Z,65.63
2023-01-08T12:46:19.794Z,113.30
2023-01-08T12:48:51.793Z,126.35
2023-01-08T12:51:37.949Z,93.13
2023-01-08T12:54:20.167Z,85.22
2023-01-08T12:56:56.512Z,69.90
2023-01-08T12:59:48.132Z,72.35
2023-01-08T13:02:47.811Z,60.75
2023-01-08T13:05:32.524Z,61.22
2023-01-08T13:08:08.859Z,63.33
2023-01-08T13:10:50.827Z,64.28
2023-01-08T13:13:31.576Z,63.42
2023-01-08T13:16:19.327Z,64.70
2023-01-08T13:18:59.845Z,70.22
2023-01-08T13:21:31.814Z,58.88
2023-01-08T13:24:07.335Z,65.30
2023-01-08T13:26:37.321Z,58.67
2023-01-08T13:29:24.077Z,60.10
2023-01-08T13:31:52.050Z,58.45
2023-01-08T13:34:42.454Z,73.22
2023-01-08T13:37:19.702Z,67.53
2023-01-08T13:39:54.449Z,62.03
2023-01-08T13:42:25.238Z,51.67
2023-01-08T13:44:58.916Z,63.17
2023-01-08T13:47:35.446Z,55.38
2023-01-08T13:50:17.826Z,56.30
2023-01-08T13:52:50.098Z,62.65
2023-01-08T13:55:27.381Z,61.78
2023-01-08T13:57:59.338Z,52.95
2023-01-08T14:00:31.645Z,59.75
2023-01-08T14:02:58.904Z,73.70
2023-01-08T14:05:34.721Z,58.33
2023-01-08T14:08:02.083Z,55.92
2023-01-08T14:10:30.619Z,68.03
2023-01-08T14:13:07.600Z,60.33
2023-01-08T14:15:36.388Z,66.53
2023-01-08T14:18:05.349Z,75.07
2023-01-08T14:20:37.283Z,82.25
2023-01-08T14:23:12.525Z,69.50
2023-01-08T14:25:43.032Z,104.00
2023-01-08T14:28:16.828Z,102.82
2023-01-08T14:30:52.481Z,73.47
2023-01-08T14:33:24.092Z,127.85
2023-01-08T14:35:52.398Z,81.47
2023-01-08T14:38:19.778Z,79.57
2023-01-08T14:41:09.855Z,85.38
2023-01-08T14:43:49.997Z,82.70
2023-01-08T14:46:25.357Z,110.82
2023-01-08T14:48:54.711Z,106.38
2023-01-08T14:51:27.865Z,82.55
2023-01-08T14:54:01.525Z,84.13
2023-01-08T14:56:33.746Z,110.35
2023-01-08T14:59:06.852Z,150.90
2023-01-08T15:01:35.176Z,142.95
2023-01-08T15:04:17.972Z,117.50
2023-01-08T15:06:46.890Z,151.95
2023-01-08T15:09:21.891Z,143.60
2023-01-08T15:11:57.903Z,138.02
2023-01-08T15:14:27.355Z,138.63
2023-01-08T15:16:58.054Z,131.73
2023-01-08T15:19:26.654Z,126.80
2023-01-08T15:21:57.817Z,128.57
2023-01-08T15:24:29.361Z,125.00
2023-01-08T15:26:57.115Z,125.55
2023-01-08T15:29:33.598Z,130.20
2023-01-08T15:32:16.061Z,118.72
2023-01-08T15:34:44.611Z,127.22
2023-01-08T15:37:13.278Z,190.60
2023-01-08T15:39:40.680Z,126.07
2023-01-08T15:42:40.988Z,124.00
2023-01-08T15:45:19.596Z,119.32
2023-01-08T15:47:47.133Z,178.15
2023-01-08T15:50:14.571Z,167.13
2023-01-08T15:52:43.906Z,215.15
2023-01-08T15:55:22.938Z,147.48
2023-01-08T15:57:50.785Z,142.30
2023-01-08T16:00:20.318Z,136.10
2023-01-08T16:02:50.002Z,122.28
2023-01-08T16:05:19.544Z,117.63
2023-01-08T16:07:47.292Z,105.78
2023-01-08T16:10:16.351Z,115.88
2023-01-08T16:12:43.954Z,117.45
2023-01-08T16:15:12.272Z,125.88
2023-01-08T16:17:40.306Z,132.20
2023-01-08T16:20:08.878Z,175.25
2023-01-08T16:22:36.109Z,146.25
2023-01-08T16:25:04.000Z,174.45
2023-01-08T16:27:32.893Z,164.77
2023-01-08T16:30:00.471Z,199.20
2023-01-08T16:32:27.750Z,178.23
2023-01-08T16:34:57.755Z,127.57
2023-01-08T16:37:25.090Z,141.88
2023-01-08T16:39:52.377Z,141.95
2023-01-08T16:42:19.598Z,131.63
2023-01-08T16:44:46.769Z,118.78
2023-01-08T16:47:14.014Z,113.22
2023-01-08T16:49:41.854Z,125.63
2023-01-08T16:52:10.090Z,134.93
2023-01-08T16:54:37.565Z,124.55
2023-01-08T16:57:05.486Z,144.13
2023-01-08T16:59:33.191Z,186.00
2023-01-08T17:02:03.494Z,138.82
2023-01-08T17:04:31.824Z,233.48
2023-01-08T17:07:03.481Z,147.02
2023-01-08T17:09:30.823Z,262.20
2023-01-08T17:11:58.322Z,156.55
2023-01-08T17:14:25.608Z,667.55
2023-01-08T17:16:52.972Z,166.57
2023-01-08T17:19:20.788Z,179.02
2023-01-08T17:21:50.574Z,179.13
2023-01-08T17:24:18.171Z,183.70
2023-01-08T17:26:45.822Z,205.65
2023-01-08T17:29:13.110Z,219.20
2023-01-08T17:31:40.648Z,198.48
2023-01-08T17:37:38.733Z,224.95
2023-01-08T17:40:06.714Z,245.75
2023-01-08T17:42:34.108Z,237.43
2023-01-08T17:45:05.778Z,231.88
2023-01-08T17:47:34.177Z,283.35
2023-01-08T17:50:03.502Z,231.65
2023-01-08T17:52:30.734Z,204.45
2023-01-08T17:54:58.146Z,221.00
2023-01-08T17:57:26.682Z,228.80
2023-01-08T17:59:53.862Z,215.75
2023-01-08T18:02:21.548Z,237.13
2023-01-08T18:04:49.094Z,242.55
2023-01-08T18:07:16.460Z,240.15
2023-01-08T18:09:45.114Z,305.10
2023-01-08T18:12:12.597Z,474.52
2023-01-08T18:14:41.621Z,346.17
2023-01-08T18:17:08.844Z,255.48
2023-01-08T18:19:36.233Z,257.13
2023-01-08T18:22:03.446Z,240.80
2023-01-08T18:24:30.793Z,307.38
2023-01-08T18:26:59.713Z,267.95
2023-01-08T18:29:28.599Z,251.95
2023-01-08T18:32:06.679Z,250.30
2023-01-08T18:34:36.932Z,245.65
2023-01-08T18:37:06.992Z,217.18
2023-01-08T18:39:36.001Z,220.93
2023-01-08T18:42:23.733Z,202.10
2023-01-08T18:44:55.349Z,208.35
2023-01-08T18:47:29.111Z,239.32
2023-01-08T18:49:59.259Z,213.98
2023-01-08T18:52:26.534Z,252.85
2023-01-08T18:54:53.920Z,249.57
2023-01-08T18:57:21.217Z,227.77
2023-01-08T18:59:49.988Z,190.85
2023-01-08T19:02:24.054Z,191.05
2023-01-08T19:04:51.629Z,149.82
2023-01-08T19:07:19.625Z,155.13
2023-01-08T19:09:46.822Z,184.65
2023-01-08T19:12:14.263Z,182.75
2023-01-08T19:14:41.843Z,172.30
2023-01-08T19:17:09.237Z,160.45
2023-01-08T19:19:36.705Z,163.85
2023-01-08T19:22:04.994Z,170.30
2023-01-08T19:24:32.398Z,212.05
2023-01-08T19:26:59.573Z,183.05
2023-01-08T19:29:26.816Z,157.43
2023-01-08T19:31:54.178Z,162.88
2023-01-08T19:34:21.424Z,176.10
2023-01-08T19:36:48.574Z,167.05
2023-01-08T19:39:15.928Z,174.13
2023-01-08T19:42:01.539Z,170.75
2023-01-08T19:44:28.984Z,168.63
2023-01-08T19:46:56.342Z,197.07
2023-01-08T19:49:24.100Z,185.18
2023-01-08T19:51:52.735Z,232.25
2023-01-08T19:54:22.254Z,397.35
2023-01-08T19:56:49.604Z,419.75
2023-01-08T19:59:16.670Z,280.83
2023-01-08T20:01:48.582Z,219.05
2023-01-08T20:04:22.403Z,227.95
2023-01-08T20:06:53.213Z,217.52
2023-01-08T20:09:45.000Z,233.20
2023-01-08T20:12:14.248Z,255.95
2023-01-08T20:14:41.584Z,263.65
2023-01-08T20:17:08.919Z,351.95
2023-01-08T20:19:37.009Z,279.55
2023-01-08T20:22:04.268Z,269.60
2023-01-08T20:24:33.355Z,278.73
2023-01-08T20:27:01.899Z,276.80
2023-01-08T20:32:59.995Z,290.60
2023-01-08T20:35:27.162Z,287.55
2023-01-08T20:37:54.445Z,292.77
2023-01-08T20:40:21.755Z,291.20
2023-01-08T20:42:49.165Z,302.67
2023-01-08T20:45:16.616Z,298.77
2023-01-08T20:47:44.025Z,276.13
2023-01-08T20:50:19.371Z,265.35
2023-01-08T20:52:47.858Z,264.10
2023-01-08T20:55:17.566Z,242.27
2023-01-08T20:57:45.888Z,361.10
2023-01-08T21:00:13.378Z,288.27
2023-01-08T21:02:40.554Z,324.00
2023-01-08T21:05:08.208Z,256.40
2023-01-08T21:07:35.418Z,181.27
2023-01-08T21:10:02.960Z,170.23
2023-01-08T21:12:31.491Z,162.40
2023-01-08T21:14:58.763Z,164.98
2023-01-08T21:17:26.043Z,161.48
2023-01-08T21:19:53.256Z,161.27
2023-01-08T21:22:20.572Z,139.55
2023-01-08T21:24:47.659Z,148.43
2023-01-08T21:27:15.051Z,139.43
2023-01-08T21:29:42.474Z,136.30
2023-01-08T21:32:09.694Z,165.18
2023-01-08T21:34:36.924Z,159.63
2023-01-08T21:37:04.420Z,157.55
2023-01-08T21:39:33.123Z,149.00
2023-01-08T21:42:19.087Z,149.18
2023-01-08T21:45:04.605Z,165.93
2023-01-08T21:47:31.833Z,168.95
2023-01-08T21:49:59.183Z,197.52
2023-01-08T21:52:44.906Z,247.52
2023-01-08T21:55:13.025Z,221.45
2023-01-08T21:57:40.650Z,232.90
2023-01-08T22:00:08.693Z,258.00
2023-01-08T22:02:37.199Z,255.57
2023-01-08T22:05:05.966Z,240.93
2023-01-08T22:07:33.202Z,229.75
2023-01-08T22:10:03.628Z,279.27
2023-01-08T22:12:30.894Z,223.15
2023-01-08T22:14:58.426Z,247.05
2023-01-08T22:17:27.130Z,240.18
2023-01-08T22:19:54.574Z,257.08
2023-01-08T22:22:21.955Z,240.25
2023-01-08T22:24:51.553Z,252.25
2023-01-08T22:27:19.100Z,230.13
2023-01-08T22:29:47.638Z,249.63
2023-01-08T22:32:14.935Z,197.82
2023-01-08T22:34:43.231Z,209.45
2023-01-08T22:37:10.476Z,204.23
2023-01-08T22:39:37.665Z,200.88
2023-01-08T22:42:05.122Z,206.93
2023-01-08T22:44:32.454Z,227.18
2023-01-08T22:47:02.325Z,238.30
2023-01-08T22:49:29.662Z,208.65
2023-01-08T22:51:58.777Z,216.45
2023-01-08T22:54:25.941Z,235.07
2023-01-08T22:56:53.154Z,234.98
2023-01-08T22:59:21.486Z,231.13
2023-01-08T23:01:49.302Z,225.25
2023-01-08T23:04:16.801Z,222.07
2023-01-08T23:06:44.230Z,200.85
2023-01-08T23:09:11.525Z,241.13
2023-01-08T23:11:38.866Z,216.73
2023-01-08T23:14:06.235Z,263.88
2023-01-08T23:16:33.572Z,209.07
2023-01-08T23:19:01.004Z,225.57
2023-01-08T23:21:28.748Z,232.27
2023-01-08T23:23:56.382Z,201.65
2023-01-08T23:26:26.515Z,198.07
2023-01-08T23:28:55.672Z,206.80
2023-01-08T23:31:26.181Z,198.75
2023-01-08T23:33:53.978Z,186.40
2023-01-08T23:36:22.268Z,172.05
2023-01-08T23:38:51.707Z,183.38
2023-01-08T23:41:21.145Z,186.95
2023-01-08T23:43:49.432Z,184.23
2023-01-08T23:46:17.541Z,170.35
2023-01-08T23:48:45.076Z,172.65
2023-01-08T23:51:12.334Z,187.30
2023-01-08T23:53:39.703Z,179.23
2023-01-08T23:56:07.811Z,199.70
2023-01-08T23:58:36.281Z,181.90
